Time;durP1;ratioP1;P1;durP2;ratioP2;P2;SDS_P1;SDS_P2;PMS_P1;PMS_P2;Temp;Humidity;BMP_temperature;BMP_pressure;BME280_temperature;BME280_humidity;BME280_pressure;Samples;Min_cycle;Max_cycle;Signal;HPM_P1;HPM_P2
2022/08/03 00:00:25;;;;;;;;;;;;;;;;;;2115124;28;19924;-44
2022/08/03 00:01:26;;;;;;;;;;;;;;;;;;2114850;28;20019;-44
2022/08/03 00:02:26;;;;;;;;;;;;;;;;;;2114783;28;19931;-44
2022/08/03 00:03:27;;;;;;;;;;;;;;;;;;2114968;28;19963;-44
2022/08/03 00:04:28;;;;;;;;;;;;;;;;;;2114901;28;20331;-44
2022/08/03 00:05:34;;;;;;;;;;;;;;;;;;2114931;28;19927;-44
2022/08/03 00:06:35;;;;;;;;;;;;;;;;;;2114851;28;20052;-45
2022/08/03 00:07:39;;;;;;;;;;;;;;;;;;2115046;28;19970;-45
2022/08/03 00:08:39;;;;;;;;;;;;;;;;;;2114459;28;19968;-45
2022/08/03 00:09:40;;;;;;;;;;;;;;;;;;2115020;28;20334;-44
2022/08/03 00:10:41;;;;;;;;;;;;;;;;;;2114884;28;19924;-45
2022/08/03 00:11:42;;;;;;;;;;;;;;;;;;2108149;28;19974;-44
2022/08/03 00:12:43;;;;;;;;;;;;;;;;;;2106486;28;20003;-44
2022/08/03 00:13:44;;;;;;;;;;;;;;;;;;2106435;28;19959;-44
2022/08/03 00:14:45;;;;;;;;;;;;;;;;;;2106365;28;19924;-45
2022/08/03 00:15:46;;;;;;;;;;;;;;;;;;2106349;28;20281;-44
2022/08/03 00:16:46;;;;;;;;;;;;;;;;;;2106446;28;19924;-45
2022/08/03 00:17:47;;;;;;;;;;;;;;;;;;2106326;28;19924;-43
2022/08/03 00:18:54;;;;;;;;;;;;;;;;;;2106776;28;19928;-44
2022/08/03 00:19:55;;;;;;;;;;;;;;;;;;2106421;28;20014;-45
2022/08/03 00:20:56;;;;;;;;;;;;;;;;;;2105976;28;19928;-44
2022/08/03 00:21:56;;;;;;;;;;;;;;;;;;2105513;28;20003;-44
2022/08/03 00:22:57;;;;;;;;;;;;;;;;;;2106379;28;20043;-44
2022/08/03 00:23:58;;;;;;;;;;;;;;;;;;2106314;28;20408;-43
2022/08/03 00:24:59;;;;;;;;;;;;;;;;;;2106480;28;19977;-45
2022/08/03 00:26:00;;;;;;;;;;;;;;;;;;2106382;28;20073;-44
2022/08/03 00:27:02;;;;;;;;;;;;;;;;;;2106497;28;19931;-44
2022/08/03 00:28:02;;;;;;;;;;;;;;;;;;2106250;28;19924;-45
2022/08/03 00:29:03;;;;;;;;;;;;;;;;;;2106371;28;20456;-44
2022/08/03 00:30:04;;;;;;;;;;;;;;;;;;2106413;28;19928;-43
2022/08/03 00:31:05;;;;;;;;;;;;;;;;;;2106187;28;20375;-43
2022/08/03 00:32:06;;;;;;;;;;;;;;;;;;2106453;28;20338;-44
2022/08/03 00:33:09;;;;;;;;;;;;;;;;;;2106387;28;19924;-45
2022/08/03 00:34:09;;;;;;;;;;;;;;;;;;2106674;28;19959;-46
2022/08/03 00:35:11;;;;;;;;;;;;;;;;;;2106197;28;19990;-44
2022/08/03 00:36:20;;;;;;;;;;;;;;;;;;2106285;28;19985;-43
2022/08/03 00:37:21;;;;;;;;;;;;;;;;;;2106354;28;19925;-44
2022/08/03 00:38:22;;;;;;;;;;;;;;;;;;2106395;28;19931;-46
2022/08/03 00:39:23;;;;;;;;;;;;;;;;;;2106308;28;19947;-43
2022/08/03 00:40:24;;;;;;;;;;;;;;;;;;2106299;28;19928;-43
2022/08/03 00:41:25;;;;;;;;;;;;;;;;;;2106176;28;19924;-43
2022/08/03 00:42:26;;;;;;;;;;;;;;;;;;2106130;28;20004;-44
2022/08/03 00:43:27;;;;;;;;;;;;;;;;;;2106368;28;20029;-48
2022/08/03 00:44:28;;;;;;;;;;;;;;;;;;2106215;28;19924;-44
2022/08/03 00:45:29;;;;;;;;;;;;;;;;;;2106133;28;19969;-45
2022/08/03 00:46:30;;;;;;;;;;;;;;;;;;2106210;28;19975;-45
2022/08/03 00:47:31;;;;;;;;;;;;;;;;;;2106201;28;19931;-45
2022/08/03 00:48:32;;;;;;;;;;;;;;;;;;2106247;28;20007;-44
2022/08/03 00:49:34;;;;;;;;;;;;;;;;;;2106276;28;19990;-45
2022/08/03 00:50:35;;;;;;;;;;;;;;;;;;2106131;28;20384;-44
2022/08/03 00:51:36;;;;;;;;;;;;;;;;;;2106681;28;20016;-44
2022/08/03 00:52:36;;;;;;;;;;;;;;;;;;2106339;28;20003;-45
2022/08/03 00:53:37;;;;;;;;;;;;;;;;;;2106143;28;19960;-44
2022/08/03 00:54:38;;;;;;;;;;;;;;;;;;2106416;28;19924;-45
2022/08/03 00:55:39;;;;;;;;;;;;;;;;;;2106114;28;20026;-44
2022/08/03 00:56:40;;;;;;;;;;;;;;;;;;2106181;28;20395;-44
2022/08/03 00:57:41;;;;;;;;;;;;;;;;;;2106225;28;19924;-44
2022/08/03 00:58:42;;;;;;;;;;;;;;;;;;2106675;28;19947;-44
2022/08/03 00:59:43;;;;;;;;;;;;;;;;;;2106213;28;20016;-45
2022/08/03 01:00:43;;;;;;;;;;;;;;;;;;2106442;28;20053;-44
2022/08/03 01:01:44;;;;;;;;;;;;;;;;;;2106021;28;20331;-43
2022/08/03 01:02:46;;;;;;;;;;;;;;;;;;2106036;28;19931;-44
2022/08/03 01:03:47;;;;;;;;;;;;;;;;;;2106620;28;19980;-47
2022/08/03 01:04:48;;;;;;;;;;;;;;;;;;2109130;28;19987;-43
2022/08/03 01:05:49;;;;;;;;;;;;;;;;;;2114444;28;20357;-47
2022/08/03 01:06:49;;;;;;;;;;;;;;;;;;2114450;28;20143;-44
2022/08/03 01:07:51;;;;;;;;;;;;;;;;;;2114895;28;19972;-44
2022/08/03 01:08:52;;;;;;;;;;;;;;;;;;2114787;28;20325;-45
2022/08/03 01:09:53;;;;;;;;;;;;;;;;;;2114611;28;19949;-46
2022/08/03 01:10:54;;;;;;;;;;;;;;;;;;2114527;28;20399;-44
2022/08/03 01:11:55;;;;;;;;;;;;;;;;;;2106245;28;20005;-44
2022/08/03 01:13:00;;;;;;;;;;;;;;;;;;2106124;28;19925;-44
2022/08/03 01:14:01;;;;;;;;;;;;;;;;;;2106229;28;19924;-44
2022/08/03 01:15:18;;;;;;;;;;;;;;;;;;2105902;28;19961;-45
2022/08/03 01:16:19;;;;;;;;;;;;;;;;;;2106163;28;20012;-44
2022/08/03 01:17:20;;;;;;;;;;;;;;;;;;2106217;28;19971;-45
2022/08/03 01:18:21;;;;;;;;;;;;;;;;;;2105984;28;19924;-44
2022/08/03 01:19:22;;;;;;;;;;;;;;;;;;2106107;28;19928;-45
2022/08/03 01:20:23;;;;;;;;;;;;;;;;;;2106106;28;19983;-46
2022/08/03 01:21:24;;;;;;;;;;;;;;;;;;2106408;28;19930;-45
2022/08/03 01:22:25;;;;;;;;;;;;;;;;;;2106036;28;20446;-44
2022/08/03 01:23:26;;;;;;;;;;;;;;;;;;2106113;28;19924;-45
2022/08/03 01:24:29;;;;;;;;;;;;;;;;;;2106142;28;19924;-44
2022/08/03 01:25:30;;;;;;;;;;;;;;;;;;2106139;28;20007;-44
2022/08/03 01:26:31;;;;;;;;;;;;;;;;;;2105972;28;20001;-44
2022/08/03 01:27:31;;;;;;;;;;;;;;;;;;2106006;28;19924;-44
2022/08/03 01:28:33;;;;;;;;;;;;;;;;;;2106191;28;19928;-45
2022/08/03 01:29:33;;;;;;;;;;;;;;;;;;2106013;28;20373;-47
2022/08/03 01:30:34;;;;;;;;;;;;;;;;;;2105966;28;19980;-44
2022/08/03 01:31:35;;;;;;;;;;;;;;;;;;2105986;28;19924;-44
2022/08/03 01:32:36;;;;;;;;;;;;;;;;;;2106000;28;20377;-44
2022/08/03 01:33:57;;;;;;;;;;;;;;;;;;2107368;28;20385;-44
2022/08/03 01:34:58;;;;;;;;;;;;;;;;;;2107606;28;19932;-45
2022/08/03 01:35:58;;;;;;;;;;;;;;;;;;2107410;28;19928;-45
2022/08/03 01:36:59;;;;;;;;;;;;;;;;;;2107416;28;19970;-45
2022/08/03 01:38:00;;;;;;;;;;;;;;;;;;2107540;28;20018;-46
2022/08/03 01:39:01;;;;;;;;;;;;;;;;;;2107410;28;19924;-45
2022/08/03 01:40:02;;;;;;;;;;;;;;;;;;2107396;28;20420;-45
2022/08/03 01:41:03;;;;;;;;;;;;;;;;;;2107381;28;20015;-46
2022/08/03 01:42:05;;;;;;;;;;;;;;;;;;2107470;28;19928;-45
2022/08/03 01:43:06;;;;;;;;;;;;;;;;;;2107318;28;19940;-45
2022/08/03 01:44:06;;;;;;;;;;;;;;;;;;2107434;28;20379;-46
2022/08/03 01:45:27;;;;;;;;;;;;;;;;;;2107382;28;20404;-44
2022/08/03 01:46:28;;;;;;;;;;;;;;;;;;2107508;28;19924;-45
2022/08/03 01:47:29;;;;;;;;;;;;;;;;;;2107399;28;19967;-46
2022/08/03 01:48:30;;;;;;;;;;;;;;;;;;2107557;28;20266;-44
2022/08/03 01:49:31;;;;;;;;;;;;;;;;;;2107311;28;19924;-44
2022/08/03 01:50:33;;;;;;;;;;;;;;;;;;2107362;28;19931;-45
2022/08/03 01:51:34;;;;;;;;;;;;;;;;;;2107272;28;19960;-44
2022/08/03 01:52:54;;;;;;;;;;;;;;;;;;2107465;28;19974;-45
2022/08/03 01:53:55;;;;;;;;;;;;;;;;;;2107278;28;20385;-45
2022/08/03 01:54:56;;;;;;;;;;;;;;;;;;2107348;28;20460;-45
2022/08/03 01:55:57;;;;;;;;;;;;;;;;;;2107256;28;19924;-45
2022/08/03 01:56:58;;;;;;;;;;;;;;;;;;2107360;28;19932;-45
2022/08/03 01:57:59;;;;;;;;;;;;;;;;;;2107296;28;20338;-44
2022/08/03 01:59:06;;;;;;;;;;;;;;;;;;2107492;28;19924;-44
2022/08/03 02:00:08;;;;;;;;;;;;;;;;;;2107250;28;19924;-44
2022/08/03 02:01:09;;;;;;;;;;;;;;;;;;2111030;28;19924;-45
2022/08/03 02:02:10;;;;;;;;;;;;;;;;;;2115772;28;20400;-45
2022/08/03 02:03:29;;;;;;;;;;;;;;;;;;2115682;28;19924;-45
2022/08/03 02:04:29;;;;;;;;;;;;;;;;;;2115911;28;19924;-44
2022/08/03 02:05:30;;;;;;;;;;;;;;;;;;2115721;28;19924;-45
2022/08/03 02:06:31;;;;;;;;;;;;;;;;;;2115635;28;19924;-45
2022/08/03 02:07:52;;;;;;;;;;;;;;;;;;2115746;28;20321;-44
2022/08/03 02:08:53;;;;;;;;;;;;;;;;;;2115857;28;19928;-45
2022/08/03 02:09:54;;;;;;;;;;;;;;;;;;2115691;28;19932;-45
2022/08/03 02:10:55;;;;;;;;;;;;;;;;;;2115952;28;20018;-44
2022/08/03 02:11:56;;;;;;;;;;;;;;;;;;2107077;28;19928;-44
2022/08/03 02:12:56;;;;;;;;;;;;;;;;;;2107375;28;20008;-44
2022/08/03 02:13:57;;;;;;;;;;;;;;;;;;2107129;28;19924;-45
2022/08/03 02:14:58;;;;;;;;;;;;;;;;;;2107222;28;19964;-45
2022/08/03 02:16:00;;;;;;;;;;;;;;;;;;2107195;28;19932;-45
2022/08/03 02:17:01;;;;;;;;;;;;;;;;;;2107246;28;20003;-44
2022/08/03 02:18:02;;;;;;;;;;;;;;;;;;2107224;28;19928;-45
2022/08/03 02:19:03;;;;;;;;;;;;;;;;;;2107218;28;19970;-45
2022/08/03 02:20:03;;;;;;;;;;;;;;;;;;2107169;28;20288;-44
2022/08/03 02:21:04;;;;;;;;;;;;;;;;;;2107082;28;19928;-45
2022/08/03 02:22:11;;;;;;;;;;;;;;;;;;2107289;28;20288;-45
2022/08/03 02:23:12;;;;;;;;;;;;;;;;;;2107190;28;19932;-44
2022/08/03 02:24:13;;;;;;;;;;;;;;;;;;2107094;28;20009;-45
2022/08/03 02:25:14;;;;;;;;;;;;;;;;;;2107129;28;20430;-45
2022/08/03 02:26:14;;;;;;;;;;;;;;;;;;2107031;28;19959;-44
2022/08/03 02:27:15;;;;;;;;;;;;;;;;;;2107055;28;20365;-45
2022/08/03 02:28:16;;;;;;;;;;;;;;;;;;2107261;28;19931;-46
2022/08/03 02:29:17;;;;;;;;;;;;;;;;;;2107146;28;19924;-45
2022/08/03 02:30:18;;;;;;;;;;;;;;;;;;2107338;28;20374;-45
2022/08/03 02:31:19;;;;;;;;;;;;;;;;;;2107422;28;19946;-45
2022/08/03 02:32:19;;;;;;;;;;;;;;;;;;2107060;28;19975;-46
2022/08/03 02:33:21;;;;;;;;;;;;;;;;;;2107191;28;19966;-45
2022/08/03 02:34:22;;;;;;;;;;;;;;;;;;2107212;28;20025;-46
2022/08/03 02:35:23;;;;;;;;;;;;;;;;;;2107100;28;19928;-45
2022/08/03 02:36:24;;;;;;;;;;;;;;;;;;2107089;28;19932;-45
2022/08/03 02:37:25;;;;;;;;;;;;;;;;;;2107054;28;19924;-45
2022/08/03 02:38:26;;;;;;;;;;;;;;;;;;2107141;28;19959;-45
2022/08/03 02:39:27;;;;;;;;;;;;;;;;;;2107000;28;19924;-45
2022/08/03 02:40:28;;;;;;;;;;;;;;;;;;2107140;28;19924;-44
2022/08/03 02:41:29;;;;;;;;;;;;;;;;;;2106881;28;20007;-45
2022/08/03 02:42:30;;;;;;;;;;;;;;;;;;2107255;28;19924;-46
2022/08/03 02:43:31;;;;;;;;;;;;;;;;;;2107233;28;19924;-45
2022/08/03 02:44:40;;;;;;;;;;;;;;;;;;2106019;28;20305;-45
2022/08/03 02:45:41;;;;;;;;;;;;;;;;;;2107043;28;19928;-44
2022/08/03 02:46:45;;;;;;;;;;;;;;;;;;2106984;28;19932;-45
2022/08/03 02:47:47;;;;;;;;;;;;;;;;;;2107006;28;19924;-44
2022/08/03 02:48:55;;;;;;;;;;;;;;;;;;2107167;28;19928;-44
2022/08/03 02:49:55;;;;;;;;;;;;;;;;;;2106900;28;19927;-45
2022/08/03 02:50:56;;;;;;;;;;;;;;;;;;2107111;28;19963;-45
2022/08/03 02:51:57;;;;;;;;;;;;;;;;;;2106853;28;20381;-45
2022/08/03 02:52:58;;;;;;;;;;;;;;;;;;2106932;28;19924;-45
2022/08/03 02:53:59;;;;;;;;;;;;;;;;;;2107123;28;19963;-45
2022/08/03 02:55:00;;;;;;;;;;;;;;;;;;2107197;28;20342;-46
2022/08/03 02:56:01;;;;;;;;;;;;;;;;;;2106860;28;20355;-46
2022/08/03 02:57:02;;;;;;;;;;;;;;;;;;2107726;28;19951;-45
2022/08/03 02:58:03;;;;;;;;;;;;;;;;;;2115911;28;20014;-46
2022/08/03 02:59:03;;;;;;;;;;;;;;;;;;2115231;28;19970;-44
2022/08/03 03:00:04;;;;;;;;;;;;;;;;;;2115469;28;19927;-45
2022/08/03 03:01:05;;;;;;;;;;;;;;;;;;2115254;28;19924;-45
2022/08/03 03:02:06;;;;;;;;;;;;;;;;;;2115412;28;19923;-45
2022/08/03 03:03:07;;;;;;;;;;;;;;;;;;2115409;28;19924;-44
2022/08/03 03:04:08;;;;;;;;;;;;;;;;;;2115601;28;19923;-46
2022/08/03 03:05:09;;;;;;;;;;;;;;;;;;2115439;28;19923;-46
2022/08/03 03:06:30;;;;;;;;;;;;;;;;;;2115338;28;20381;-46
2022/08/03 03:07:30;;;;;;;;;;;;;;;;;;2115714;28;20056;-44
2022/08/03 03:08:31;;;;;;;;;;;;;;;;;;2115209;28;20306;-45
2022/08/03 03:09:32;;;;;;;;;;;;;;;;;;2115428;28;19931;-45
2022/08/03 03:10:42;;;;;;;;;;;;;;;;;;2115345;28;19959;-46
2022/08/03 03:11:43;;;;;;;;;;;;;;;;;;2108431;28;20425;-45
2022/08/03 03:12:44;;;;;;;;;;;;;;;;;;2106806;28;19931;-45
2022/08/03 03:13:45;;;;;;;;;;;;;;;;;;2106997;28;19931;-45
2022/08/03 03:14:46;;;;;;;;;;;;;;;;;;2106824;28;20006;-45
2022/08/03 03:15:46;;;;;;;;;;;;;;;;;;2106817;28;20093;-45
2022/08/03 03:16:47;;;;;;;;;;;;;;;;;;2106716;28;20369;-46
2022/08/03 03:17:52;;;;;;;;;;;;;;;;;;2107183;28;19950;-45
2022/08/03 03:18:53;;;;;;;;;;;;;;;;;;2106951;28;20012;-45
2022/08/03 03:19:54;;;;;;;;;;;;;;;;;;2106986;28;20014;-44
2022/08/03 03:20:55;;;;;;;;;;;;;;;;;;2106712;28;19928;-45
2022/08/03 03:21:55;;;;;;;;;;;;;;;;;;2106660;28;19928;-45
2022/08/03 03:22:57;;;;;;;;;;;;;;;;;;2106866;28;20368;-46
2022/08/03 03:23:57;;;;;;;;;;;;;;;;;;2106849;28;20026;-45
2022/08/03 03:24:58;;;;;;;;;;;;;;;;;;2106844;28;19924;-45
2022/08/03 03:26:01;;;;;;;;;;;;;;;;;;2106970;28;20198;-45
2022/08/03 03:27:02;;;;;;;;;;;;;;;;;;2107028;28;19924;-45
2022/08/03 03:28:02;;;;;;;;;;;;;;;;;;2106756;28;20019;-45
2022/08/03 03:29:04;;;;;;;;;;;;;;;;;;2106734;28;20457;-44
2022/08/03 03:30:04;;;;;;;;;;;;;;;;;;2106848;28;20023;-44
2022/08/03 03:31:05;;;;;;;;;;;;;;;;;;2106640;28;19967;-45
2022/08/03 03:32:06;;;;;;;;;;;;;;;;;;2106749;28;20019;-45
2022/08/03 03:33:09;;;;;;;;;;;;;;;;;;2106850;28;19974;-46
2022/08/03 03:34:10;;;;;;;;;;;;;;;;;;2106922;28;19924;-47
2022/08/03 03:35:11;;;;;;;;;;;;;;;;;;2106637;28;20022;-47
2022/08/03 03:36:12;;;;;;;;;;;;;;;;;;2106606;28;19932;-46
2022/08/03 03:37:13;;;;;;;;;;;;;;;;;;2106709;28;19960;-46
2022/08/03 03:38:14;;;;;;;;;;;;;;;;;;2106927;28;19924;-46
2022/08/03 03:39:14;;;;;;;;;;;;;;;;;;2106556;28;20019;-46
2022/08/03 03:40:16;;;;;;;;;;;;;;;;;;2106694;28;19924;-45
2022/08/03 03:41:17;;;;;;;;;;;;;;;;;;2106836;28;19925;-46
2022/08/03 03:42:18;;;;;;;;;;;;;;;;;;2106579;28;20339;-46
2022/08/03 03:43:19;;;;;;;;;;;;;;;;;;2107005;28;19928;-45
2022/08/03 03:44:20;;;;;;;;;;;;;;;;;;2106664;28;20003;-46
2022/08/03 03:45:21;;;;;;;;;;;;;;;;;;2106578;28;19928;-46
2022/08/03 03:46:22;;;;;;;;;;;;;;;;;;2106518;28;19946;-46
2022/08/03 03:47:22;;;;;;;;;;;;;;;;;;2106757;28;19989;-45
2022/08/03 03:48:33;;;;;;;;;;;;;;;;;;2106871;28;19931;-44
2022/08/03 03:49:33;;;;;;;;;;;;;;;;;;2106908;28;19974;-44
2022/08/03 03:50:34;;;;;;;;;;;;;;;;;;2106696;28;20483;-45
2022/08/03 03:51:35;;;;;;;;;;;;;;;;;;2106511;28;20068;-45
2022/08/03 03:52:36;;;;;;;;;;;;;;;;;;2106722;28;19924;-45
2022/08/03 03:53:37;;;;;;;;;;;;;;;;;;2110180;28;20405;-45
2022/08/03 03:54:38;;;;;;;;;;;;;;;;;;2114844;28;19927;-47
2022/08/03 03:55:39;;;;;;;;;;;;;;;;;;2114897;28;19973;-44
2022/08/03 03:57:00;;;;;;;;;;;;;;;;;;2114935;28;19950;-45
2022/08/03 03:58:00;;;;;;;;;;;;;;;;;;2115002;28;19931;-43
2022/08/03 03:59:01;;;;;;;;;;;;;;;;;;2115116;28;19949;-44
2022/08/03 04:00:02;;;;;;;;;;;;;;;;;;2115141;28;19938;-45
2022/08/03 04:01:03;;;;;;;;;;;;;;;;;;2114886;28;19927;-45
2022/08/03 04:02:04;;;;;;;;;;;;;;;;;;2114912;28;20299;-44
2022/08/03 04:03:05;;;;;;;;;;;;;;;;;;2114805;28;19935;-46
2022/08/03 04:12:09;;;;;;;;;;;;;;;;;;2088827;28;20003;-46
2022/08/03 04:13:09;;;;;;;;;;;;;;;;;;2088831;28;20066;-45
2022/08/03 04:14:10;;;;;;;;;;;;;;;;;;2089105;28;19925;-46
2022/08/03 04:15:11;;;;;;;;;;;;;;;;;;2088901;28;19968;-46
2022/08/03 04:16:12;;;;;;;;;;;;;;;;;;2088687;28;19968;-45
2022/08/03 04:17:13;;;;;;;;;;;;;;;;;;2088819;28;19925;-45
2022/08/03 04:18:14;;;;;;;;;;;;;;;;;;2103386;28;19977;-46
2022/08/03 04:19:15;;;;;;;;;;;;;;;;;;2106560;28;19963;-46
2022/08/03 04:20:20;;;;;;;;;;;;;;;;;;2106390;28;20438;-44
2022/08/03 04:21:22;;;;;;;;;;;;;;;;;;2106486;28;19981;-45
2022/08/03 04:22:23;;;;;;;;;;;;;;;;;;2106369;28;20381;-45
2022/08/03 04:23:24;;;;;;;;;;;;;;;;;;2106410;28;20405;-46
2022/08/03 04:24:25;;;;;;;;;;;;;;;;;;2106305;28;20014;-46
2022/08/03 04:25:26;;;;;;;;;;;;;;;;;;2106446;28;20487;-44
2022/08/03 04:26:27;;;;;;;;;;;;;;;;;;2106377;28;20005;-46
2022/08/03 04:27:28;;;;;;;;;;;;;;;;;;2106317;28;19968;-46
2022/08/03 04:28:29;;;;;;;;;;;;;;;;;;2106381;28;19950;-45
2022/08/03 04:29:32;;;;;;;;;;;;;;;;;;2106590;28;19931;-45
2022/08/03 04:30:33;;;;;;;;;;;;;;;;;;2106330;28;19928;-44
2022/08/03 04:31:33;;;;;;;;;;;;;;;;;;2106525;28;19937;-45
2022/08/03 04:32:34;;;;;;;;;;;;;;;;;;2106363;28;20036;-46
2022/08/03 04:33:35;;;;;;;;;;;;;;;;;;2106382;28;19982;-47
2022/08/03 04:34:36;;;;;;;;;;;;;;;;;;2106664;28;20007;-46
2022/08/03 04:35:37;;;;;;;;;;;;;;;;;;2106329;28;19959;-46
2022/08/03 04:36:58;;;;;;;;;;;;;;;;;;2106520;28;19924;-45
2022/08/03 04:37:59;;;;;;;;;;;;;;;;;;2106358;28;20377;-47
2022/08/03 04:39:00;;;;;;;;;;;;;;;;;;2106222;28;19932;-46
2022/08/03 04:40:00;;;;;;;;;;;;;;;;;;2106263;28;20010;-45
2022/08/03 04:41:01;;;;;;;;;;;;;;;;;;2106218;28;19931;-46
2022/08/03 04:42:02;;;;;;;;;;;;;;;;;;2106303;28;19924;-46
2022/08/03 04:43:08;;;;;;;;;;;;;;;;;;2106357;28;20328;-46
2022/08/03 04:44:09;;;;;;;;;;;;;;;;;;2106654;28;19931;-46
2022/08/03 04:45:10;;;;;;;;;;;;;;;;;;2106293;28;19927;-45
2022/08/03 04:46:11;;;;;;;;;;;;;;;;;;2106437;28;20019;-45
2022/08/03 04:47:12;;;;;;;;;;;;;;;;;;2106389;28;19924;-46
2022/08/03 04:48:13;;;;;;;;;;;;;;;;;;2106495;28;19924;-46
2022/08/03 04:49:14;;;;;;;;;;;;;;;;;;2106223;28;19924;-46
2022/08/03 04:50:15;;;;;;;;;;;;;;;;;;2113188;28;20201;-46
2022/08/03 04:51:21;;;;;;;;;;;;;;;;;;2114673;28;19932;-45
2022/08/03 04:52:22;;;;;;;;;;;;;;;;;;2114730;28;19924;-46
2022/08/03 04:53:23;;;;;;;;;;;;;;;;;;2115004;28;19969;-45
2022/08/03 04:54:23;;;;;;;;;;;;;;;;;;2115215;28;20011;-45
2022/08/03 04:55:25;;;;;;;;;;;;;;;;;;2114749;28;19927;-44
2022/08/03 04:56:25;;;;;;;;;;;;;;;;;;2114936;28;19924;-46
2022/08/03 04:57:26;;;;;;;;;;;;;;;;;;2114699;28;20044;-45
2022/08/03 04:58:27;;;;;;;;;;;;;;;;;;2114805;28;19932;-46
2022/08/03 04:59:28;;;;;;;;;;;;;;;;;;2115056;28;19923;-46
2022/08/03 05:00:29;;;;;;;;;;;;;;;;;;2114692;28;19924;-45
2022/08/03 05:01:30;;;;;;;;;;;;;;;;;;2114728;28;19971;-45
2022/08/03 05:02:31;;;;;;;;;;;;;;;;;;2114993;28;19923;-46
2022/08/03 05:03:32;;;;;;;;;;;;;;;;;;2114736;28;19924;-46
2022/08/03 05:04:33;;;;;;;;;;;;;;;;;;2114602;28;19927;-46
2022/08/03 05:05:33;;;;;;;;;;;;;;;;;;2114587;28;19931;-46
2022/08/03 05:06:49;;;;;;;;;;;;;;;;;;2114745;28;20381;-46
2022/08/03 05:07:56;;;;;;;;;;;;;;;;;;2115232;28;19939;-46
2022/08/03 05:08:57;;;;;;;;;;;;;;;;;;2116089;28;20047;-47
2022/08/03 05:09:57;;;;;;;;;;;;;;;;;;2116070;28;19936;-45
2022/08/03 05:11:03;;;;;;;;;;;;;;;;;;2115171;28;19928;-45
2022/08/03 05:12:04;;;;;;;;;;;;;;;;;;2107713;28;19974;-45
2022/08/03 05:13:05;;;;;;;;;;;;;;;;;;2107744;28;19935;-45
2022/08/03 05:14:05;;;;;;;;;;;;;;;;;;2107871;28;20018;-48
2022/08/03 05:15:07;;;;;;;;;;;;;;;;;;2107540;28;19924;-47
2022/08/03 05:16:07;;;;;;;;;;;;;;;;;;2108289;28;20353;-46
2022/08/03 05:17:08;;;;;;;;;;;;;;;;;;2107717;28;19969;-46
2022/08/03 05:18:09;;;;;;;;;;;;;;;;;;2107961;28;19975;-45
2022/08/03 05:19:14;;;;;;;;;;;;;;;;;;2107689;28;19931;-47
2022/08/03 05:20:15;;;;;;;;;;;;;;;;;;2107578;28;19932;-46
2022/08/03 05:21:19;;;;;;;;;;;;;;;;;;2107932;28;19931;-47
2022/08/03 05:22:20;;;;;;;;;;;;;;;;;;2107626;28;20015;-46
2022/08/03 05:23:21;;;;;;;;;;;;;;;;;;2107509;28;19924;-46
2022/08/03 05:24:22;;;;;;;;;;;;;;;;;;2107896;28;19925;-45
2022/08/03 05:25:23;;;;;;;;;;;;;;;;;;2107565;28;20409;-47
2022/08/03 05:26:28;;;;;;;;;;;;;;;;;;2107689;28;20433;-44
2022/08/03 05:27:29;;;;;;;;;;;;;;;;;;2107905;28;19932;-45
2022/08/03 05:28:30;;;;;;;;;;;;;;;;;;2107840;28;20306;-47
2022/08/03 05:29:30;;;;;;;;;;;;;;;;;;2108119;28;20332;-46
2022/08/03 05:30:31;;;;;;;;;;;;;;;;;;2107643;28;19930;-46
2022/08/03 05:31:34;;;;;;;;;;;;;;;;;;2107612;28;19978;-47
2022/08/03 05:32:35;;;;;;;;;;;;;;;;;;2107726;28;20273;-46
2022/08/03 05:33:38;;;;;;;;;;;;;;;;;;2108037;28;19931;-46
2022/08/03 05:34:38;;;;;;;;;;;;;;;;;;2107560;28;19928;-45
2022/08/03 05:35:39;;;;;;;;;;;;;;;;;;2107788;28;20377;-47
2022/08/03 05:37:01;;;;;;;;;;;;;;;;;;2107508;28;19974;-46
2022/08/03 05:38:01;;;;;;;;;;;;;;;;;;2107411;28;20437;-45
2022/08/03 05:39:02;;;;;;;;;;;;;;;;;;2107478;28;19924;-46
2022/08/03 05:40:03;;;;;;;;;;;;;;;;;;2107964;28;19951;-43
2022/08/03 05:41:04;;;;;;;;;;;;;;;;;;2107646;28;19928;-45
2022/08/03 05:42:20;;;;;;;;;;;;;;;;;;2107658;28;20320;-43
2022/08/03 05:43:21;;;;;;;;;;;;;;;;;;2107550;28;19924;-45
2022/08/03 05:44:24;;;;;;;;;;;;;;;;;;2107942;28;20400;-46
2022/08/03 05:45:25;;;;;;;;;;;;;;;;;;2107299;28;20204;-46
2022/08/03 05:46:28;;;;;;;;;;;;;;;;;;2114125;28;19928;-44
2022/08/03 05:47:29;;;;;;;;;;;;;;;;;;2116050;28;19994;-43
2022/08/03 05:48:30;;;;;;;;;;;;;;;;;;2115984;28;20046;-45
2022/08/03 05:49:31;;;;;;;;;;;;;;;;;;2116018;28;20007;-44
2022/08/03 05:50:32;;;;;;;;;;;;;;;;;;2116150;28;19931;-45
2022/08/03 05:51:33;;;;;;;;;;;;;;;;;;2115670;28;19959;-45
2022/08/03 05:52:34;;;;;;;;;;;;;;;;;;2116170;28;20336;-44
2022/08/03 05:53:36;;;;;;;;;;;;;;;;;;2115992;28;19924;-43
2022/08/03 05:54:36;;;;;;;;;;;;;;;;;;2115726;28;20010;-45
2022/08/03 05:55:57;;;;;;;;;;;;;;;;;;2116226;28;19924;-44
2022/08/03 05:57:04;;;;;;;;;;;;;;;;;;2115763;28;20388;-44
2022/08/03 05:58:04;;;;;;;;;;;;;;;;;;2115677;28;20019;-44
2022/08/03 05:59:05;;;;;;;;;;;;;;;;;;2116001;28;19941;-45
2022/08/03 06:00:26;;;;;;;;;;;;;;;;;;2115698;28;19931;-44
2022/08/03 06:01:27;;;;;;;;;;;;;;;;;;2115678;28;19931;-44
2022/08/03 06:02:28;;;;;;;;;;;;;;;;;;2115915;28;20273;-45
2022/08/03 06:03:29;;;;;;;;;;;;;;;;;;2115925;28;19931;-44
2022/08/03 06:04:30;;;;;;;;;;;;;;;;;;2115920;28;20456;-46
2022/08/03 06:05:35;;;;;;;;;;;;;;;;;;2115820;28;19970;-45
2022/08/03 06:06:36;;;;;;;;;;;;;;;;;;2115942;28;19928;-46
2022/08/03 06:07:36;;;;;;;;;;;;;;;;;;2116056;28;19985;-46
2022/08/03 06:08:38;;;;;;;;;;;;;;;;;;2115529;28;19955;-47
2022/08/03 06:09:40;;;;;;;;;;;;;;;;;;2115636;28;20016;-45
2022/08/03 06:11:01;;;;;;;;;;;;;;;;;;2114638;28;20424;-45
2022/08/03 06:12:01;;;;;;;;;;;;;;;;;;2107322;28;20440;-47
2022/08/03 06:13:02;;;;;;;;;;;;;;;;;;2107543;28;19924;-44
2022/08/03 06:14:03;;;;;;;;;;;;;;;;;;2107219;28;20395;-46
2022/08/03 06:15:04;;;;;;;;;;;;;;;;;;2107348;28;19928;-44
2022/08/03 06:16:05;;;;;;;;;;;;;;;;;;2107356;28;19928;-46
2022/08/03 06:17:06;;;;;;;;;;;;;;;;;;2107318;28;19960;-44
2022/08/03 06:18:07;;;;;;;;;;;;;;;;;;2107360;28;20518;-44
2022/08/03 06:19:08;;;;;;;;;;;;;;;;;;2107059;28;19932;-44
2022/08/03 06:20:08;;;;;;;;;;;;;;;;;;2107056;28;20469;-44
2022/08/03 06:21:09;;;;;;;;;;;;;;;;;;2107071;28;19924;-43
2022/08/03 06:22:16;;;;;;;;;;;;;;;;;;2107140;28;19928;-44
2022/08/03 06:23:17;;;;;;;;;;;;;;;;;;2107436;28;20277;-44
2022/08/03 06:24:18;;;;;;;;;;;;;;;;;;2107114;28;19963;-44
2022/08/03 06:25:19;;;;;;;;;;;;;;;;;;2107326;28;19927;-44
2022/08/03 06:26:21;;;;;;;;;;;;;;;;;;2107089;28;19928;-46
2022/08/03 06:27:22;;;;;;;;;;;;;;;;;;2107225;28;20023;-46
2022/08/03 06:28:29;;;;;;;;;;;;;;;;;;2107561;28;20328;-45
2022/08/03 06:29:50;;;;;;;;;;;;;;;;;;2107135;28;19977;-46
2022/08/03 06:30:51;;;;;;;;;;;;;;;;;;2107296;28;20003;-44
2022/08/03 06:31:52;;;;;;;;;;;;;;;;;;2107581;28;19924;-46
2022/08/03 06:32:53;;;;;;;;;;;;;;;;;;2107358;28;19924;-44
2022/08/03 06:33:54;;;;;;;;;;;;;;;;;;2107229;28;19931;-44
2022/08/03 06:35:15;;;;;;;;;;;;;;;;;;2106996;28;20281;-44
2022/08/03 06:36:16;;;;;;;;;;;;;;;;;;2107170;28;20414;-44
2022/08/03 06:37:17;;;;;;;;;;;;;;;;;;2107051;28;20012;-43
2022/08/03 06:38:18;;;;;;;;;;;;;;;;;;2107342;28;19924;-45
2022/08/03 06:39:19;;;;;;;;;;;;;;;;;;2107474;28;20325;-44
2022/08/03 06:40:20;;;;;;;;;;;;;;;;;;2107467;28;20427;-47
2022/08/03 06:41:24;;;;;;;;;;;;;;;;;;2107027;28;20339;-47
2022/08/03 06:42:25;;;;;;;;;;;;;;;;;;2111315;28;19946;-46
2022/08/03 06:43:26;;;;;;;;;;;;;;;;;;2115560;28;20292;-46
2022/08/03 06:44:27;;;;;;;;;;;;;;;;;;2116256;28;20022;-44
2022/08/03 06:45:28;;;;;;;;;;;;;;;;;;2115564;28;20002;-46
2022/08/03 06:46:32;;;;;;;;;;;;;;;;;;2115510;28;20041;-47
2022/08/03 06:47:33;;;;;;;;;;;;;;;;;;2115970;28;20042;-47
2022/08/03 06:48:34;;;;;;;;;;;;;;;;;;2115668;28;19923;-45
2022/08/03 06:49:35;;;;;;;;;;;;;;;;;;2116187;28;20388;-44
2022/08/03 06:50:36;;;;;;;;;;;;;;;;;;2116166;28;19928;-47
2022/08/03 06:51:36;;;;;;;;;;;;;;;;;;2115750;28;19959;-47
2022/08/03 06:52:57;;;;;;;;;;;;;;;;;;2115644;28;19931;-45
2022/08/03 06:53:58;;;;;;;;;;;;;;;;;;2115661;28;20332;-44
2022/08/03 06:54:59;;;;;;;;;;;;;;;;;;2115883;28;20027;-44
2022/08/03 06:56:00;;;;;;;;;;;;;;;;;;2115667;28;19927;-44
2022/08/03 06:57:01;;;;;;;;;;;;;;;;;;2115518;28;19942;-46
2022/08/03 06:58:02;;;;;;;;;;;;;;;;;;2115480;28;20404;-45
2022/08/03 06:59:04;;;;;;;;;;;;;;;;;;2115360;28;19938;-43
2022/08/03 07:00:04;;;;;;;;;;;;;;;;;;2115327;28;19923;-43
2022/08/03 07:01:09;;;;;;;;;;;;;;;;;;2116149;28;19928;-44
2022/08/03 07:02:10;;;;;;;;;;;;;;;;;;2115609;28;19931;-47
2022/08/03 07:03:11;;;;;;;;;;;;;;;;;;2115472;28;20239;-47
2022/08/03 07:04:12;;;;;;;;;;;;;;;;;;2115454;28;19997;-49
2022/08/03 07:05:13;;;;;;;;;;;;;;;;;;2115329;28;20440;-48
2022/08/03 07:06:13;;;;;;;;;;;;;;;;;;2115581;28;19950;-44
2022/08/03 07:07:14;;;;;;;;;;;;;;;;;;2115235;28;19978;-45
2022/08/03 07:08:15;;;;;;;;;;;;;;;;;;2115762;28;19974;-47
2022/08/03 07:09:16;;;;;;;;;;;;;;;;;;2115387;28;19954;-45
2022/08/03 07:10:18;;;;;;;;;;;;;;;;;;2115520;28;20023;-44
2022/08/03 07:11:19;;;;;;;;;;;;;;;;;;2111895;28;20405;-44
2022/08/03 07:12:20;;;;;;;;;;;;;;;;;;2106779;28;19924;-45